Rouyn, Canada
Current Conditions -  °F | °C
As of 11:00 PM on Thursday 30 Oct 2014 (Local Time) from CYUY Reporting Station
Snow Showers Snow Showers  
Wind Chill: 23°   Ceiling: 4200
Heat Index: 28°   Visibility: 8mi
Dew Point: 27°   Wind: 5mph
Humidity: 93%   Direction: 340°NNW
Pressure: 30.02"   Gusts: NA
Location:  48.23°N, 79.03°W
Report Text: CYUY 310300Z 34004KT 8SM -SHSN BKN042 M02/M03 A3002 RMK SC7 SLP184
Loading
Personal Weather Stations






























Interactive Weather Map
Tropical Storm Tracking
New forecast layout! Learn more

10-Day Weather Forecast

Advertisements
Track Severe Weather on mobile